Krasnoyarsk, Russia
Current Conditions -  °F | °C
As of 6:00 AM on Sunday 26 Oct 2014 (Local Time) from UNKL Reporting Station
Broken Clouds Broken Clouds  
Wind Chill: 29°   Ceiling: 1600
Heat Index: 36°   Visibility: 6mi
Dew Point: 32°   Wind: 9mph
Humidity: 87%   Direction: 280°W
Pressure: 29.91"   Gusts: NA
Location:  56.03°N, 93.05°E
Report Text: UNKL 252300Z 28004MPS 9999 SCT012 BKN016CB 02/00 Q1013 NOSIGRMK QFE734 29////50
Loading
Personal Weather Stations






























Interactive Weather Map
Tropical Storm Tracking
New forecast layout! Learn more

10-Day Weather Forecast

Advertisements
Track Severe Weather on mobile